sensor_id;sensor_type;location;lat;lon;timestamp;temperature;humidity
4509;DHT22;2267;48.816;9.230;2023-09-19T00:00:21;20.30;99.90
4509;DHT22;2267;48.816;9.230;2023-09-19T00:02:55;20.30;99.90
4509;DHT22;2267;48.816;9.230;2023-09-19T00:05:26;20.30;99.90
4509;DHT22;2267;48.816;9.230;2023-09-19T00:07:56;20.30;99.90
4509;DHT22;2267;48.816;9.230;2023-09-19T00:10:26;20.30;99.90
4509;DHT22;2267;48.816;9.230;2023-09-19T00:12:54;20.30;99.90
4509;DHT22;2267;48.816;9.230;2023-09-19T00:15:25;20.30;99.90
4509;DHT22;2267;48.816;9.230;2023-09-19T00:17:52;20.30;99.90
4509;DHT22;2267;48.816;9.230;2023-09-19T00:20:22;20.30;99.90
4509;DHT22;2267;48.816;9.230;2023-09-19T00:22:52;20.30;99.90
4509;DHT22;2267;48.816;9.230;2023-09-19T00:25:20;20.30;99.90
4509;DHT22;2267;48.816;9.230;2023-09-19T00:27:47;20.20;99.90
4509;DHT22;2267;48.816;9.230;2023-09-19T00:30:18;20.10;99.90
4509;DHT22;2267;48.816;9.230;2023-09-19T00:32:48;20.10;99.90
4509;DHT22;2267;48.816;9.230;2023-09-19T00:35:19;20.10;99.90
4509;DHT22;2267;48.816;9.230;2023-09-19T00:37:46;20.10;99.90
4509;DHT22;2267;48.816;9.230;2023-09-19T00:40:12;20.20;99.90
4509;DHT22;2267;48.816;9.230;2023-09-19T00:42:42;20.20;99.90
4509;DHT22;2267;48.816;9.230;2023-09-19T00:45:10;20.20;99.90
4509;DHT22;2267;48.816;9.230;2023-09-19T00:47:45;20.20;99.90
4509;DHT22;2267;48.816;9.230;2023-09-19T00:50:14;20.30;99.90
4509;DHT22;2267;48.816;9.230;2023-09-19T00:52:44;20.20;99.90
4509;DHT22;2267;48.816;9.230;2023-09-19T00:55:11;20.20;99.90
4509;DHT22;2267;48.816;9.230;2023-09-19T00:57:40;20.30;99.90
4509;DHT22;2267;48.816;9.230;2023-09-19T01:00:08;20.20;99.90
4509;DHT22;2267;48.816;9.230;2023-09-19T01:02:42;20.20;99.90
4509;DHT22;2267;48.816;9.230;2023-09-19T01:05:11;20.20;99.90
4509;DHT22;2267;48.816;9.230;2023-09-19T01:07:39;20.20;99.90
4509;DHT22;2267;48.816;9.230;2023-09-19T01:10:12;20.20;99.90
4509;DHT22;2267;48.816;9.230;2023-09-19T01:21:11;20.20;99.90
4509;DHT22;2267;48.816;9.230;2023-09-19T01:30:04;20.20;99.90
4509;DHT22;2267;48.816;9.230;2023-09-19T01:32:34;20.20;99.90
4509;DHT22;2267;48.816;9.230;2023-09-19T01:35:05;20.10;99.90
4509;DHT22;2267;48.816;9.230;2023-09-19T01:37:32;20.10;99.90
4509;DHT22;2267;48.816;9.230;2023-09-19T01:40:02;20.10;99.90
4509;DHT22;2267;48.816;9.230;2023-09-19T01:42:45;20.10;99.90
4509;DHT22;2267;48.816;9.230;2023-09-19T01:48:16;20.10;99.90
4509;DHT22;2267;48.816;9.230;2023-09-19T01:51:10;20.10;99.90
4509;DHT22;2267;48.816;9.230;2023-09-19T01:53:59;20.10;99.90
4509;DHT22;2267;48.816;9.230;2023-09-19T01:56:34;20.10;99.90
4509;DHT22;2267;48.816;9.230;2023-09-19T01:59:13;20.10;99.90
4509;DHT22;2267;48.816;9.230;2023-09-19T02:01:41;20.10;99.90
4509;DHT22;2267;48.816;9.230;2023-09-19T02:04:11;20.10;99.90
4509;DHT22;2267;48.816;9.230;2023-09-19T02:06:41;20.20;99.90
4509;DHT22;2267;48.816;9.230;2023-09-19T02:09:08;20.20;99.90
4509;DHT22;2267;48.816;9.230;2023-09-19T02:11:35;20.20;99.90
4509;DHT22;2267;48.816;9.230;2023-09-19T02:14:03;20.10;99.90
4509;DHT22;2267;48.816;9.230;2023-09-19T02:16:31;20.10;99.90
4509;DHT22;2267;48.816;9.230;2023-09-19T02:18:58;20.10;99.90
4509;DHT22;2267;48.816;9.230;2023-09-19T02:21:26;20.10;99.90
4509;DHT22;2267;48.816;9.230;2023-09-19T02:23:56;20.10;99.90
4509;DHT22;2267;48.816;9.230;2023-09-19T02:26:23;20.10;99.90
4509;DHT22;2267;48.816;9.230;2023-09-19T02:28:50;20.10;99.90
4509;DHT22;2267;48.816;9.230;2023-09-19T02:31:17;20.10;99.90
4509;DHT22;2267;48.816;9.230;2023-09-19T02:33:44;20.10;99.90
4509;DHT22;2267;48.816;9.230;2023-09-19T02:36:12;20.10;99.90
4509;DHT22;2267;48.816;9.230;2023-09-19T02:38:39;20.10;99.90
4509;DHT22;2267;48.816;9.230;2023-09-19T02:41:06;20.10;99.90
4509;DHT22;2267;48.816;9.230;2023-09-19T02:43:34;20.10;99.90
4509;DHT22;2267;48.816;9.230;2023-09-19T02:46:01;20.10;99.90
4509;DHT22;2267;48.816;9.230;2023-09-19T02:48:29;20.10;99.90
4509;DHT22;2267;48.816;9.230;2023-09-19T02:50:56;20.10;99.90
4509;DHT22;2267;48.816;9.230;2023-09-19T02:53:23;20.10;99.90
4509;DHT22;2267;48.816;9.230;2023-09-19T02:55:50;20.10;99.90
4509;DHT22;2267;48.816;9.230;2023-09-19T02:58:20;20.00;99.90
4509;DHT22;2267;48.816;9.230;2023-09-19T03:00:47;20.00;99.90
4509;DHT22;2267;48.816;9.230;2023-09-19T03:03:17;20.00;99.90
4509;DHT22;2267;48.816;9.230;2023-09-19T03:05:44;20.00;99.90
4509;DHT22;2267;48.816;9.230;2023-09-19T03:08:16;20.00;99.90
4509;DHT22;2267;48.816;9.230;2023-09-19T03:10:46;20.00;99.90
4509;DHT22;2267;48.816;9.230;2023-09-19T03:13:14;20.00;99.90
4509;DHT22;2267;48.816;9.230;2023-09-19T03:15:42;20.00;99.90
4509;DHT22;2267;48.816;9.230;2023-09-19T03:18:17;20.00;99.90
4509;DHT22;2267;48.816;9.230;2023-09-19T03:20:55;20.00;99.90
4509;DHT22;2267;48.816;9.230;2023-09-19T03:23:23;20.00;99.90
4509;DHT22;2267;48.816;9.230;2023-09-19T03:25:50;20.00;99.90
4509;DHT22;2267;48.816;9.230;2023-09-19T03:28:17;20.00;99.90
4509;DHT22;2267;48.816;9.230;2023-09-19T03:30:44;20.00;99.90
4509;DHT22;2267;48.816;9.230;2023-09-19T03:33:12;20.00;99.90
4509;DHT22;2267;48.816;9.230;2023-09-19T03:35:39;20.00;99.90
4509;DHT22;2267;48.816;9.230;2023-09-19T03:38:06;20.00;99.90
4509;DHT22;2267;48.816;9.230;2023-09-19T03:40:33;20.00;99.90
4509;DHT22;2267;48.816;9.230;2023-09-19T03:43:01;20.00;99.90
4509;DHT22;2267;48.816;9.230;2023-09-19T03:45:28;20.00;99.90
4509;DHT22;2267;48.816;9.230;2023-09-19T03:47:55;20.00;99.90
4509;DHT22;2267;48.816;9.230;2023-09-19T03:50:22;20.00;99.90
4509;DHT22;2267;48.816;9.230;2023-09-19T03:52:49;20.00;99.90
4509;DHT22;2267;48.816;9.230;2023-09-19T03:55:16;20.00;99.90
4509;DHT22;2267;48.816;9.230;2023-09-19T03:57:48;20.00;99.90
4509;DHT22;2267;48.816;9.230;2023-09-19T04:00:16;20.00;99.90
4509;DHT22;2267;48.816;9.230;2023-09-19T04:02:48;20.10;99.90
4509;DHT22;2267;48.816;9.230;2023-09-19T04:05:15;20.10;99.90
4509;DHT22;2267;48.816;9.230;2023-09-19T04:07:43;20.10;99.90
4509;DHT22;2267;48.816;9.230;2023-09-19T04:10:10;20.10;99.90
4509;DHT22;2267;48.816;9.230;2023-09-19T04:12:38;20.10;99.90
4509;DHT22;2267;48.816;9.230;2023-09-19T04:15:05;20.10;99.90
4509;DHT22;2267;48.816;9.230;2023-09-19T04:17:33;20.10;99.90
4509;DHT22;2267;48.816;9.230;2023-09-19T04:20:00;20.10;99.90
4509;DHT22;2267;48.816;9.230;2023-09-19T04:22:27;20.10;99.90
4509;DHT22;2267;48.816;9.230;2023-09-19T04:24:54;20.10;99.90
4509;DHT22;2267;48.816;9.230;2023-09-19T04:27:21;20.10;99.90
4509;DHT22;2267;48.816;9.230;2023-09-19T04:29:47;20.10;99.90
4509;DHT22;2267;48.816;9.230;2023-09-19T04:32:14;20.00;99.90
4509;DHT22;2267;48.816;9.230;2023-09-19T04:34:42;20.00;99.90
4509;DHT22;2267;48.816;9.230;2023-09-19T04:37:09;20.00;99.90
4509;DHT22;2267;48.816;9.230;2023-09-19T04:39:37;20.00;99.90
4509;DHT22;2267;48.816;9.230;2023-09-19T04:42:05;20.00;99.90
4509;DHT22;2267;48.816;9.230;2023-09-19T04:44:32;20.00;99.90
4509;DHT22;2267;48.816;9.230;2023-09-19T04:46:59;20.00;99.90
4509;DHT22;2267;48.816;9.230;2023-09-19T04:49:27;20.00;99.90
4509;DHT22;2267;48.816;9.230;2023-09-19T04:51:53;20.00;99.90
4509;DHT22;2267;48.816;9.230;2023-09-19T04:54:22;20.00;99.90
4509;DHT22;2267;48.816;9.230;2023-09-19T04:56:49;20.00;99.90
4509;DHT22;2267;48.816;9.230;2023-09-19T04:59:16;20.00;99.90
4509;DHT22;2267;48.816;9.230;2023-09-19T05:01:43;19.90;99.90
4509;DHT22;2267;48.816;9.230;2023-09-19T05:04:10;19.90;99.90
4509;DHT22;2267;48.816;9.230;2023-09-19T05:06:36;19.90;99.90
4509;DHT22;2267;48.816;9.230;2023-09-19T05:09:03;19.90;99.90
4509;DHT22;2267;48.816;9.230;2023-09-19T05:11:32;19.90;99.90
4509;DHT22;2267;48.816;9.230;2023-09-19T05:13:59;19.90;99.90
4509;DHT22;2267;48.816;9.230;2023-09-19T05:16:30;19.80;99.90
4509;DHT22;2267;48.816;9.230;2023-09-19T05:19:01;19.80;99.90
4509;DHT22;2267;48.816;9.230;2023-09-19T05:21:28;19.80;99.90
4509;DHT22;2267;48.816;9.230;2023-09-19T05:23:57;19.80;99.90
4509;DHT22;2267;48.816;9.230;2023-09-19T05:26:24;19.70;99.90
4509;DHT22;2267;48.816;9.230;2023-09-19T05:28:51;19.70;99.90
4509;DHT22;2267;48.816;9.230;2023-09-19T05:31:19;19.60;99.90
4509;DHT22;2267;48.816;9.230;2023-09-19T05:33:47;19.70;99.90
4509;DHT22;2267;48.816;9.230;2023-09-19T05:36:14;19.70;99.90
4509;DHT22;2267;48.816;9.230;2023-09-19T05:38:42;19.60;99.90
4509;DHT22;2267;48.816;9.230;2023-09-19T05:41:11;19.70;99.90
4509;DHT22;2267;48.816;9.230;2023-09-19T05:43:40;19.70;99.90
4509;DHT22;2267;48.816;9.230;2023-09-19T05:46:08;19.60;99.90
4509;DHT22;2267;48.816;9.230;2023-09-19T05:48:35;19.60;99.90
4509;DHT22;2267;48.816;9.230;2023-09-19T05:51:02;19.60;99.90
4509;DHT22;2267;48.816;9.230;2023-09-19T05:53:29;19.60;99.90
4509;DHT22;2267;48.816;9.230;2023-09-19T05:55:56;19.60;99.90
4509;DHT22;2267;48.816;9.230;2023-09-19T05:58:23;19.60;99.90
4509;DHT22;2267;48.816;9.230;2023-09-19T06:00:50;19.50;99.90
4509;DHT22;2267;48.816;9.230;2023-09-19T06:03:17;19.50;99.90
4509;DHT22;2267;48.816;9.230;2023-09-19T06:05:45;19.50;99.90
4509;DHT22;2267;48.816;9.230;2023-09-19T06:08:12;19.50;99.90
4509;DHT22;2267;48.816;9.230;2023-09-19T06:10:39;19.40;99.90
4509;DHT22;2267;48.816;9.230;2023-09-19T06:13:07;19.40;99.90
4509;DHT22;2267;48.816;9.230;2023-09-19T06:15:36;19.40;99.90
4509;DHT22;2267;48.816;9.230;2023-09-19T06:18:03;19.30;99.90
4509;DHT22;2267;48.816;9.230;2023-09-19T06:20:31;19.20;99.90
4509;DHT22;2267;48.816;9.230;2023-09-19T06:22:59;19.20;99.90
4509;DHT22;2267;48.816;9.230;2023-09-19T06:25:28;19.20;99.90
4509;DHT22;2267;48.816;9.230;2023-09-19T06:27:55;19.20;99.90
4509;DHT22;2267;48.816;9.230;2023-09-19T06:30:24;19.20;99.90
4509;DHT22;2267;48.816;9.230;2023-09-19T06:32:58;19.20;99.90
4509;DHT22;2267;48.816;9.230;2023-09-19T06:35:27;19.20;99.90
4509;DHT22;2267;48.816;9.230;2023-09-19T06:37:56;19.20;99.90
4509;DHT22;2267;48.816;9.230;2023-09-19T06:40:25;19.20;99.90
4509;DHT22;2267;48.816;9.230;2023-09-19T06:42:52;19.20;99.90
4509;DHT22;2267;48.816;9.230;2023-09-19T06:45:20;19.20;99.90
4509;DHT22;2267;48.816;9.230;2023-09-19T06:47:50;19.20;99.90
4509;DHT22;2267;48.816;9.230;2023-09-19T06:50:18;19.30;99.90
4509;DHT22;2267;48.816;9.230;2023-09-19T06:52:53;19.30;99.90
4509;DHT22;2267;48.816;9.230;2023-09-19T06:55:21;19.40;99.90
4509;DHT22;2267;48.816;9.230;2023-09-19T06:57:52;19.40;99.90
4509;DHT22;2267;48.816;9.230;2023-09-19T07:00:21;19.40;99.90
4509;DHT22;2267;48.816;9.230;2023-09-19T07:03:01;19.40;99.90
4509;DHT22;2267;48.816;9.230;2023-09-19T07:05:28;19.50;99.90
4509;DHT22;2267;48.816;9.230;2023-09-19T07:07:55;19.50;99.90
4509;DHT22;2267;48.816;9.230;2023-09-19T07:10:22;19.50;99.90
4509;DHT22;2267;48.816;9.230;2023-09-19T07:13:01;19.60;99.90
4509;DHT22;2267;48.816;9.230;2023-09-19T07:15:29;19.60;99.90
4509;DHT22;2267;48.816;9.230;2023-09-19T07:17:57;19.60;99.90
4509;DHT22;2267;48.816;9.230;2023-09-19T07:20:24;19.60;99.90
4509;DHT22;2267;48.816;9.230;2023-09-19T07:22:56;19.60;99.90
4509;DHT22;2267;48.816;9.230;2023-09-19T07:25:27;19.60;99.90
4509;DHT22;2267;48.816;9.230;2023-09-19T07:27:58;19.60;99.90
4509;DHT22;2267;48.816;9.230;2023-09-19T07:30:27;19.60;99.90
4509;DHT22;2267;48.816;9.230;2023-09-19T07:32:54;19.50;99.90
4509;DHT22;2267;48.816;9.230;2023-09-19T07:35:21;19.50;99.90
4509;DHT22;2267;48.816;9.230;2023-09-19T07:37:49;19.60;99.90
4509;DHT22;2267;48.816;9.230;2023-09-19T07:40:18;19.50;99.90
4509;DHT22;2267;48.816;9.230;2023-09-19T07:42:45;19.60;99.90
4509;DHT22;2267;48.816;9.230;2023-09-19T07:45:14;19.60;99.90
4509;DHT22;2267;48.816;9.230;2023-09-19T07:47:44;19.60;99.90
4509;DHT22;2267;48.816;9.230;2023-09-19T07:50:12;19.60;99.90
4509;DHT22;2267;48.816;9.230;2023-09-19T07:52:39;19.70;99.90
4509;DHT22;2267;48.816;9.230;2023-09-19T07:55:06;19.70;99.90
4509;DHT22;2267;48.816;9.230;2023-09-19T07:57:38;19.70;99.90
4509;DHT22;2267;48.816;9.230;2023-09-19T08:00:05;19.80;99.90
4509;DHT22;2267;48.816;9.230;2023-09-19T08:02:37;19.80;99.90
4509;DHT22;2267;48.816;9.230;2023-09-19T08:05:05;19.90;99.90
4509;DHT22;2267;48.816;9.230;2023-09-19T08:07:39;19.90;99.90
4509;DHT22;2267;48.816;9.230;2023-09-19T08:10:08;20.00;99.90
4509;DHT22;2267;48.816;9.230;2023-09-19T08:12:35;20.00;99.90
4509;DHT22;2267;48.816;9.230;2023-09-19T08:15:16;20.00;99.90
4509;DHT22;2267;48.816;9.230;2023-09-19T08:17:43;20.10;99.90
4509;DHT22;2267;48.816;9.230;2023-09-19T08:20:11;20.10;99.90
4509;DHT22;2267;48.816;9.230;2023-09-19T08:22:53;20.20;99.90
4509;DHT22;2267;48.816;9.230;2023-09-19T08:25:23;20.20;99.90
4509;DHT22;2267;48.816;9.230;2023-09-19T08:27:51;20.20;99.90
4509;DHT22;2267;48.816;9.230;2023-09-19T08:30:20;20.20;99.90
4509;DHT22;2267;48.816;9.230;2023-09-19T08:32:56;20.30;99.90
4509;DHT22;2267;48.816;9.230;2023-09-19T08:35:23;20.30;99.90
4509;DHT22;2267;48.816;9.230;2023-09-19T08:37:50;20.30;99.90
4509;DHT22;2267;48.816;9.230;2023-09-19T08:40:18;20.40;99.90
4509;DHT22;2267;48.816;9.230;2023-09-19T08:42:52;20.40;99.90
4509;DHT22;2267;48.816;9.230;2023-09-19T08:45:24;20.50;99.90
4509;DHT22;2267;48.816;9.230;2023-09-19T08:50:28;20.50;99.90
4509;DHT22;2267;48.816;9.230;2023-09-19T08:52:56;20.70;99.90
4509;DHT22;2267;48.816;9.230;2023-09-19T08:55:28;20.70;99.90
4509;DHT22;2267;48.816;9.230;2023-09-19T08:58:04;20.70;99.90
4509;DHT22;2267;48.816;9.230;2023-09-19T09:00:35;20.80;99.90
4509;DHT22;2267;48.816;9.230;2023-09-19T09:03:03;20.90;99.90
4509;DHT22;2267;48.816;9.230;2023-09-19T09:05:35;21.00;99.90
4509;DHT22;2267;48.816;9.230;2023-09-19T09:08:05;21.10;99.90
4509;DHT22;2267;48.816;9.230;2023-09-19T09:10:32;21.20;99.90
4509;DHT22;2267;48.816;9.230;2023-09-19T09:13:00;21.20;99.90
4509;DHT22;2267;48.816;9.230;2023-09-19T09:15:28;21.30;99.90
4509;DHT22;2267;48.816;9.230;2023-09-19T09:17:56;21.40;99.40
4509;DHT22;2267;48.816;9.230;2023-09-19T09:20:24;21.50;99.40
4509;DHT22;2267;48.816;9.230;2023-09-19T09:22:56;21.50;99.20
4509;DHT22;2267;48.816;9.230;2023-09-19T09:25:50;21.60;98.80
4509;DHT22;2267;48.816;9.230;2023-09-19T09:28:21;21.70;97.70
4509;DHT22;2267;48.816;9.230;2023-09-19T09:30:49;21.70;97.20
4509;DHT22;2267;48.816;9.230;2023-09-19T09:33:17;21.60;96.60
4509;DHT22;2267;48.816;9.230;2023-09-19T09:35:58;21.60;96.50
4509;DHT22;2267;48.816;9.230;2023-09-19T09:38:28;21.70;96.60
4509;DHT22;2267;48.816;9.230;2023-09-19T09:40:59;21.70;96.70
4509;DHT22;2267;48.816;9.230;2023-09-19T09:43:38;21.80;96.60
4509;DHT22;2267;48.816;9.230;2023-09-19T09:46:17;21.90;96.30
4509;DHT22;2267;48.816;9.230;2023-09-19T09:48:58;22.00;95.90
4509;DHT22;2267;48.816;9.230;2023-09-19T09:51:58;22.10;95.50
4509;DHT22;2267;48.816;9.230;2023-09-19T09:54:28;22.10;94.50
4509;DHT22;2267;48.816;9.230;2023-09-19T09:57:01;22.00;93.90
4509;DHT22;2267;48.816;9.230;2023-09-19T09:59:51;22.10;94.40
4509;DHT22;2267;48.816;9.230;2023-09-19T10:02:25;22.10;94.30
4509;DHT22;2267;48.816;9.230;2023-09-19T10:04:57;22.20;94.30
4509;DHT22;2267;48.816;9.230;2023-09-19T10:07:42;22.30;93.90
4509;DHT22;2267;48.816;9.230;2023-09-19T10:10:33;22.20;93.60
4509;DHT22;2267;48.816;9.230;2023-09-19T10:13:13;22.10;93.60
4509;DHT22;2267;48.816;9.230;2023-09-19T10:15:50;22.10;93.60
4509;DHT22;2267;48.816;9.230;2023-09-19T10:18:38;22.10;93.30
4509;DHT22;2267;48.816;9.230;2023-09-19T10:21:08;22.10;93.40
4509;DHT22;2267;48.816;9.230;2023-09-19T10:23:36;22.10;93.50
4509;DHT22;2267;48.816;9.230;2023-09-19T10:26:05;22.10;93.00
4509;DHT22;2267;48.816;9.230;2023-09-19T10:28:34;22.30;93.50
4509;DHT22;2267;48.816;9.230;2023-09-19T10:31:02;22.40;93.80
4509;DHT22;2267;48.816;9.230;2023-09-19T10:33:36;22.40;92.90
4509;DHT22;2267;48.816;9.230;2023-09-19T10:36:05;22.60;92.80
4509;DHT22;2267;48.816;9.230;2023-09-19T10:38:33;22.70;91.50
4509;DHT22;2267;48.816;9.230;2023-09-19T10:41:02;22.70;91.00
4509;DHT22;2267;48.816;9.230;2023-09-19T10:43:31;22.80;90.70
4509;DHT22;2267;48.816;9.230;2023-09-19T10:46:07;22.90;89.80
4509;DHT22;2267;48.816;9.230;2023-09-19T10:48:34;23.10;90.30
4509;DHT22;2267;48.816;9.230;2023-09-19T10:51:08;23.30;90.20
4509;DHT22;2267;48.816;9.230;2023-09-19T10:56:32;23.80;87.90
4509;DHT22;2267;48.816;9.230;2023-09-19T10:59:21;23.80;86.20
4509;DHT22;2267;48.816;9.230;2023-09-19T11:01:50;24.00;87.90
4509;DHT22;2267;48.816;9.230;2023-09-19T11:04:31;24.20;87.90
4509;DHT22;2267;48.816;9.230;2023-09-19T11:07:12;24.40;86.20
4509;DHT22;2267;48.816;9.230;2023-09-19T11:09:54;24.60;85.00
4509;DHT22;2267;48.816;9.230;2023-09-19T11:18:58;24.50;80.40
4509;DHT22;2267;48.816;9.230;2023-09-19T11:26:49;24.60;81.10
4509;DHT22;2267;48.816;9.230;2023-09-19T11:29:29;24.70;79.70
4509;DHT22;2267;48.816;9.230;2023-09-19T11:31:58;24.80;79.60
4509;DHT22;2267;48.816;9.230;2023-09-19T11:39:38;25.50;77.40
4509;DHT22;2267;48.816;9.230;2023-09-19T11:42:42;25.50;74.00
4509;DHT22;2267;48.816;9.230;2023-09-19T11:48:24;25.60;74.60
4509;DHT22;2267;48.816;9.230;2023-09-19T11:50:54;25.60;73.80
4509;DHT22;2267;48.816;9.230;2023-09-19T11:53:23;25.70;72.30
4509;DHT22;2267;48.816;9.230;2023-09-19T11:55:50;25.70;71.70
4509;DHT22;2267;48.816;9.230;2023-09-19T11:58:19;25.60;72.50
4509;DHT22;2267;48.816;9.230;2023-09-19T12:00:54;25.80;72.50
4509;DHT22;2267;48.816;9.230;2023-09-19T12:03:24;26.00;71.80
4509;DHT22;2267;48.816;9.230;2023-09-19T12:05:57;26.00;71.20
4509;DHT22;2267;48.816;9.230;2023-09-19T12:08:24;26.10;71.60
4509;DHT22;2267;48.816;9.230;2023-09-19T12:10:53;26.10;70.30
4509;DHT22;2267;48.816;9.230;2023-09-19T12:13:22;26.20;71.10
4509;DHT22;2267;48.816;9.230;2023-09-19T12:15:49;26.40;71.20
4509;DHT22;2267;48.816;9.230;2023-09-19T12:18:29;26.60;70.80
4509;DHT22;2267;48.816;9.230;2023-09-19T12:20:57;26.90;70.00
4509;DHT22;2267;48.816;9.230;2023-09-19T12:23:29;27.10;68.60
4509;DHT22;2267;48.816;9.230;2023-09-19T12:25:56;27.30;68.70
4509;DHT22;2267;48.816;9.230;2023-09-19T12:28:27;27.40;68.70
4509;DHT22;2267;48.816;9.230;2023-09-19T12:31:06;27.50;68.20
4509;DHT22;2267;48.816;9.230;2023-09-19T12:33:34;27.40;66.90
4509;DHT22;2267;48.816;9.230;2023-09-19T12:36:20;27.40;67.20
4509;DHT22;2267;48.816;9.230;2023-09-19T12:38:52;27.50;67.00
4509;DHT22;2267;48.816;9.230;2023-09-19T12:41:19;27.40;67.20
4509;DHT22;2267;48.816;9.230;2023-09-19T12:43:48;27.30;67.10
4509;DHT22;2267;48.816;9.230;2023-09-19T12:46:20;27.20;67.30
4509;DHT22;2267;48.816;9.230;2023-09-19T12:49:17;27.20;68.20
4509;DHT22;2267;48.816;9.230;2023-09-19T12:51:46;27.30;67.50
4509;DHT22;2267;48.816;9.230;2023-09-19T12:54:14;27.20;66.70
4509;DHT22;2267;48.816;9.230;2023-09-19T12:56:45;27.00;67.50
4509;DHT22;2267;48.816;9.230;2023-09-19T12:59:15;27.00;68.00
4509;DHT22;2267;48.816;9.230;2023-09-19T13:01:43;27.30;68.80
4509;DHT22;2267;48.816;9.230;2023-09-19T13:04:21;27.50;68.10
4509;DHT22;2267;48.816;9.230;2023-09-19T13:06:56;27.70;66.90
4509;DHT22;2267;48.816;9.230;2023-09-19T13:09:28;27.90;66.10
4509;DHT22;2267;48.816;9.230;2023-09-19T13:12:01;28.20;64.60
4509;DHT22;2267;48.816;9.230;2023-09-19T13:14:32;28.40;64.70
4509;DHT22;2267;48.816;9.230;2023-09-19T13:17:06;28.40;62.50
4509;DHT22;2267;48.816;9.230;2023-09-19T13:19:52;28.60;63.70
4509;DHT22;2267;48.816;9.230;2023-09-19T13:25:14;29.00;63.00
4509;DHT22;2267;48.816;9.230;2023-09-19T13:30:18;28.90;62.30
4509;DHT22;2267;48.816;9.230;2023-09-19T13:32:45;28.90;62.60
4509;DHT22;2267;48.816;9.230;2023-09-19T13:35:14;28.70;62.50
4509;DHT22;2267;48.816;9.230;2023-09-19T13:37:42;28.60;62.80
4509;DHT22;2267;48.816;9.230;2023-09-19T13:40:10;28.50;63.20
4509;DHT22;2267;48.816;9.230;2023-09-19T13:42:38;28.30;63.60
4509;DHT22;2267;48.816;9.230;2023-09-19T13:45:07;28.00;64.10
4509;DHT22;2267;48.816;9.230;2023-09-19T13:47:34;28.10;65.00
4509;DHT22;2267;48.816;9.230;2023-09-19T13:50:03;28.10;65.10
4509;DHT22;2267;48.816;9.230;2023-09-19T13:52:31;28.10;65.50
4509;DHT22;2267;48.816;9.230;2023-09-19T13:55:00;28.10;64.50
4509;DHT22;2267;48.816;9.230;2023-09-19T13:57:27;27.90;63.50
4509;DHT22;2267;48.816;9.230;2023-09-19T13:59:55;27.70;63.20
4509;DHT22;2267;48.816;9.230;2023-09-19T14:02:22;27.30;63.80
4509;DHT22;2267;48.816;9.230;2023-09-19T14:04:53;27.10;65.00
4509;DHT22;2267;48.816;9.230;2023-09-19T14:07:20;26.90;65.70
4509;DHT22;2267;48.816;9.230;2023-09-19T14:09:47;26.80;66.40
4509;DHT22;2267;48.816;9.230;2023-09-19T14:12:14;26.70;67.00
4509;DHT22;2267;48.816;9.230;2023-09-19T14:14:41;26.70;66.90
4509;DHT22;2267;48.816;9.230;2023-09-19T14:17:09;26.60;67.10
4509;DHT22;2267;48.816;9.230;2023-09-19T14:19:36;26.60;67.50
4509;DHT22;2267;48.816;9.230;2023-09-19T14:22:04;26.60;68.50
4509;DHT22;2267;48.816;9.230;2023-09-19T14:24:35;26.60;67.00
4509;DHT22;2267;48.816;9.230;2023-09-19T14:27:03;26.70;66.40
4509;DHT22;2267;48.816;9.230;2023-09-19T14:29:32;26.80;66.00
4509;DHT22;2267;48.816;9.230;2023-09-19T14:32:00;26.70;66.10
4509;DHT22;2267;48.816;9.230;2023-09-19T14:34:27;26.60;66.30
4509;DHT22;2267;48.816;9.230;2023-09-19T14:36:54;26.50;66.10
4509;DHT22;2267;48.816;9.230;2023-09-19T14:39:21;26.50;66.30
4509;DHT22;2267;48.816;9.230;2023-09-19T14:41:48;26.60;66.40
4509;DHT22;2267;48.816;9.230;2023-09-19T14:44:15;26.60;65.80
4509;DHT22;2267;48.816;9.230;2023-09-19T14:46:43;26.70;66.10
4509;DHT22;2267;48.816;9.230;2023-09-19T14:49:12;26.80;65.30
4509;DHT22;2267;48.816;9.230;2023-09-19T14:51:39;26.90;65.10
4509;DHT22;2267;48.816;9.230;2023-09-19T14:54:10;26.90;65.60
4509;DHT22;2267;48.816;9.230;2023-09-19T14:56:37;27.10;66.10
4509;DHT22;2267;48.816;9.230;2023-09-19T14:59:04;27.30;66.00
4509;DHT22;2267;48.816;9.230;2023-09-19T15:01:34;27.40;64.90
4509;DHT22;2267;48.816;9.230;2023-09-19T15:04:02;27.60;64.70
4509;DHT22;2267;48.816;9.230;2023-09-19T15:06:29;27.60;63.60
4509;DHT22;2267;48.816;9.230;2023-09-19T15:08:56;27.50;64.20
4509;DHT22;2267;48.816;9.230;2023-09-19T15:11:23;27.40;63.90
4509;DHT22;2267;48.816;9.230;2023-09-19T15:13:51;27.20;63.10
4509;DHT22;2267;48.816;9.230;2023-09-19T15:16:18;27.10;63.10
4509;DHT22;2267;48.816;9.230;2023-09-19T15:18:46;27.10;63.70
4509;DHT22;2267;48.816;9.230;2023-09-19T15:21:18;26.90;63.40
4509;DHT22;2267;48.816;9.230;2023-09-19T15:23:45;26.70;63.30
4509;DHT22;2267;48.816;9.230;2023-09-19T15:26:14;26.60;63.40
4509;DHT22;2267;48.816;9.230;2023-09-19T15:28:48;26.50;63.30
4509;DHT22;2267;48.816;9.230;2023-09-19T15:31:16;26.40;63.30
4509;DHT22;2267;48.816;9.230;2023-09-19T15:33:43;26.40;63.40
4509;DHT22;2267;48.816;9.230;2023-09-19T15:36:12;26.30;63.70
4509;DHT22;2267;48.816;9.230;2023-09-19T15:38:58;26.30;63.70
4509;DHT22;2267;48.816;9.230;2023-09-19T15:41:39;26.00;63.00
4509;DHT22;2267;48.816;9.230;2023-09-19T15:44:14;26.00;63.40
4509;DHT22;2267;48.816;9.230;2023-09-19T15:46:42;25.80;63.80
4509;DHT22;2267;48.816;9.230;2023-09-19T15:49:11;25.80;64.70
4509;DHT22;2267;48.816;9.230;2023-09-19T15:51:38;25.70;64.70
4509;DHT22;2267;48.816;9.230;2023-09-19T15:54:14;25.60;64.90
4509;DHT22;2267;48.816;9.230;2023-09-19T15:56:42;25.50;65.30
4509;DHT22;2267;48.816;9.230;2023-09-19T15:59:10;25.40;66.20
4509;DHT22;2267;48.816;9.230;2023-09-19T16:01:40;25.30;65.70
4509;DHT22;2267;48.816;9.230;2023-09-19T16:04:10;25.30;66.20
4509;DHT22;2267;48.816;9.230;2023-09-19T16:06:38;25.20;66.50
4509;DHT22;2267;48.816;9.230;2023-09-19T16:09:05;25.20;67.10
4509;DHT22;2267;48.816;9.230;2023-09-19T16:11:34;25.10;67.50
4509;DHT22;2267;48.816;9.230;2023-09-19T16:14:03;25.10;67.70
4509;DHT22;2267;48.816;9.230;2023-09-19T16:16:31;25.00;67.80
4509;DHT22;2267;48.816;9.230;2023-09-19T16:19:02;25.00;68.10
4509;DHT22;2267;48.816;9.230;2023-09-19T16:21:33;25.00;68.20
4509;DHT22;2267;48.816;9.230;2023-09-19T16:24:02;25.00;68.10
4509;DHT22;2267;48.816;9.230;2023-09-19T16:26:31;25.00;68.30
4509;DHT22;2267;48.816;9.230;2023-09-19T16:28:59;24.90;68.30
4509;DHT22;2267;48.816;9.230;2023-09-19T16:31:30;24.90;68.20
4509;DHT22;2267;48.816;9.230;2023-09-19T16:34:02;24.80;68.30
4509;DHT22;2267;48.816;9.230;2023-09-19T16:36:29;24.70;68.60
4509;DHT22;2267;48.816;9.230;2023-09-19T16:38:57;24.70;68.60
4509;DHT22;2267;48.816;9.230;2023-09-19T16:41:26;24.70;68.70
4509;DHT22;2267;48.816;9.230;2023-09-19T16:43:53;24.60;68.80
4509;DHT22;2267;48.816;9.230;2023-09-19T16:46:20;24.60;69.20
4509;DHT22;2267;48.816;9.230;2023-09-19T16:48:47;24.60;70.30
4509;DHT22;2267;48.816;9.230;2023-09-19T16:51:30;24.60;70.30
4509;DHT22;2267;48.816;9.230;2023-09-19T16:53:57;24.50;70.70
4509;DHT22;2267;48.816;9.230;2023-09-19T16:56:24;24.50;70.80
4509;DHT22;2267;48.816;9.230;2023-09-19T16:58:51;24.50;71.50
4509;DHT22;2267;48.816;9.230;2023-09-19T17:01:19;24.50;71.90
4509;DHT22;2267;48.816;9.230;2023-09-19T17:03:50;24.50;72.30
4509;DHT22;2267;48.816;9.230;2023-09-19T17:06:18;24.50;72.30
4509;DHT22;2267;48.816;9.230;2023-09-19T17:08:49;24.50;72.30